createdAt,value
2019-06-26T00:02:12.748Z,20.90
2019-06-26T00:04:41.192Z,20.80
2019-06-26T00:07:09.619Z,20.80
2019-06-26T00:09:38.074Z,20.60
2019-06-26T00:12:06.580Z,20.30
2019-06-26T00:14:38.599Z,20.20
2019-06-26T00:17:05.181Z,20.20
2019-06-26T00:19:33.628Z,20.30
2019-06-26T00:22:02.070Z,20.40
2019-06-26T00:24:30.515Z,20.40
2019-06-26T00:26:58.946Z,20.40
2019-06-26T00:29:27.385Z,20.50
2019-06-26T00:31:55.832Z,20.60
2019-06-26T00:34:24.260Z,20.60
2019-06-26T00:36:52.704Z,20.40
2019-06-26T00:39:21.127Z,20.30
2019-06-26T00:41:49.580Z,20.30
2019-06-26T00:44:18.021Z,20.30
2019-06-26T00:46:46.525Z,20.30
2019-06-26T00:49:14.959Z,20.20
2019-06-26T00:51:43.395Z,20.30
2019-06-26T00:54:11.826Z,20.30
2019-06-26T00:56:40.278Z,20.20
2019-06-26T00:59:08.710Z,20.30
2019-06-26T01:01:37.159Z,20.30
2019-06-26T01:04:07.236Z,20.30
2019-06-26T01:06:44.720Z,20.20
2019-06-26T01:09:15.830Z,20.30
2019-06-26T01:11:44.322Z,20.30
2019-06-26T01:14:12.850Z,20.30
2019-06-26T01:16:41.275Z,20.30
2019-06-26T01:19:09.784Z,20.20
2019-06-26T01:21:38.210Z,20.20
2019-06-26T01:24:06.684Z,20.20
2019-06-26T01:26:35.595Z,20.10
2019-06-26T01:29:04.207Z,20.10
2019-06-26T01:31:32.631Z,20.00
2019-06-26T01:34:01.068Z,20.00
2019-06-26T01:36:29.730Z,20.00
2019-06-26T01:38:58.195Z,19.90
2019-06-26T01:41:26.607Z,19.90
2019-06-26T01:43:55.035Z,20.00
2019-06-26T01:46:23.479Z,19.90
2019-06-26T01:48:51.911Z,19.90
2019-06-26T01:51:20.357Z,19.80
2019-06-26T01:53:48.812Z,19.80
2019-06-26T01:56:17.294Z,19.70
2019-06-26T01:58:45.718Z,19.80
2019-06-26T02:01:14.164Z,19.70
2019-06-26T02:03:42.599Z,19.60
2019-06-26T02:06:11.031Z,19.60
2019-06-26T02:08:39.462Z,19.70
2019-06-26T02:11:07.934Z,19.80
2019-06-26T02:13:36.427Z,19.90
2019-06-26T02:16:04.928Z,19.90
2019-06-26T02:18:43.801Z,19.80
2019-06-26T02:21:12.835Z,19.70
2019-06-26T02:23:41.338Z,19.70
2019-06-26T02:26:09.763Z,19.70
2019-06-26T02:28:38.207Z,19.60
2019-06-26T02:31:06.640Z,19.50
2019-06-26T02:33:35.080Z,19.60
2019-06-26T02:36:03.507Z,19.70
2019-06-26T02:38:31.939Z,19.60
2019-06-26T02:41:00.395Z,19.50
2019-06-26T02:43:28.813Z,19.40
2019-06-26T02:45:57.257Z,19.30
2019-06-26T02:48:25.692Z,19.30
2019-06-26T02:50:54.118Z,19.30
2019-06-26T02:53:22.548Z,19.30
2019-06-26T02:55:50.984Z,19.30
2019-06-26T02:58:19.452Z,19.40
2019-06-26T03:00:47.966Z,19.50
2019-06-26T03:03:16.386Z,19.60
2019-06-26T03:05:44.805Z,19.70
2019-06-26T03:08:13.247Z,19.70
2019-06-26T03:10:41.682Z,19.70
2019-06-26T03:13:10.121Z,19.60
2019-06-26T03:15:38.570Z,19.50
2019-06-26T03:18:07.031Z,19.40
2019-06-26T03:20:38.543Z,19.40
2019-06-26T03:23:06.972Z,19.40
2019-06-26T03:25:35.415Z,19.30
2019-06-26T03:28:03.920Z,19.30
2019-06-26T03:30:32.386Z,19.20
2019-06-26T03:33:00.872Z,19.20
2019-06-26T03:35:29.320Z,19.10
2019-06-26T03:37:57.746Z,19.10
2019-06-26T03:40:26.191Z,19.10
2019-06-26T03:42:54.619Z,19.10
2019-06-26T03:45:26.231Z,19.10
2019-06-26T03:47:53.229Z,19.10
2019-06-26T03:50:21.730Z,19.10
2019-06-26T03:52:50.335Z,19.10
2019-06-26T03:55:18.773Z,19.10
2019-06-26T03:57:47.232Z,19.10
2019-06-26T04:00:17.812Z,19.10
2019-06-26T04:02:46.263Z,19.10
2019-06-26T04:05:14.674Z,19.00
2019-06-26T04:07:43.130Z,18.90
2019-06-26T04:10:11.623Z,19.00
2019-06-26T04:12:40.139Z,19.00
2019-06-26T04:15:08.899Z,19.10
2019-06-26T04:17:37.362Z,19.10
2019-06-26T04:20:07.728Z,19.10
2019-06-26T04:22:36.150Z,19.10
2019-06-26T04:25:08.067Z,19.20
2019-06-26T04:27:36.500Z,19.30
2019-06-26T04:30:07.277Z,19.30
2019-06-26T04:32:35.698Z,19.30
2019-06-26T04:35:04.787Z,19.40
2019-06-26T04:37:33.227Z,19.50
2019-06-26T04:40:01.681Z,19.50
2019-06-26T04:42:30.115Z,19.60
2019-06-26T04:44:58.543Z,19.60
2019-06-26T04:47:26.991Z,19.70
2019-06-26T04:49:55.423Z,19.80
2019-06-26T04:52:23.868Z,19.80
2019-06-26T04:54:52.300Z,19.90
2019-06-26T04:57:20.750Z,19.90
2019-06-26T04:59:49.367Z,20.00
2019-06-26T05:02:17.817Z,20.00
2019-06-26T05:04:46.255Z,20.00
2019-06-26T05:07:14.782Z,20.00
2019-06-26T05:09:43.262Z,19.90
2019-06-26T05:12:11.713Z,19.90
2019-06-26T05:14:40.143Z,20.10
2019-06-26T05:17:08.600Z,20.20
2019-06-26T05:19:37.022Z,20.40
2019-06-26T05:22:05.454Z,20.60
2019-06-26T05:24:33.910Z,20.80
2019-06-26T05:27:02.338Z,20.70
2019-06-26T05:29:30.782Z,20.80
2019-06-26T05:31:59.219Z,20.80
2019-06-26T05:34:27.663Z,20.80
2019-06-26T05:36:56.091Z,20.90
2019-06-26T05:39:24.583Z,21.20
2019-06-26T05:41:53.018Z,21.20
2019-06-26T05:44:21.458Z,21.20
2019-06-26T05:46:49.905Z,21.50
2019-06-26T05:49:18.332Z,21.60
2019-06-26T05:51:46.849Z,21.70
2019-06-26T05:54:15.287Z,21.80
2019-06-26T05:56:45.453Z,21.90
2019-06-26T05:59:13.950Z,22.00
2019-06-26T06:01:42.390Z,22.10
2019-06-26T06:04:10.824Z,22.20
2019-06-26T06:06:42.168Z,22.20
2019-06-26T06:09:09.455Z,22.30
2019-06-26T06:11:37.947Z,22.40
2019-06-26T06:14:06.498Z,22.50
2019-06-26T06:16:46.934Z,22.50
2019-06-26T06:19:05.160Z,22.60
2019-06-26T06:21:33.651Z,22.70
2019-06-26T06:24:02.119Z,22.70
2019-06-26T06:26:30.542Z,22.80
2019-06-26T06:28:58.982Z,22.90
2019-06-26T06:31:27.446Z,23.00
2019-06-26T06:33:55.943Z,23.00
2019-06-26T06:36:24.376Z,23.10
2019-06-26T06:38:52.816Z,23.20
2019-06-26T06:41:21.331Z,23.20
2019-06-26T06:43:49.765Z,23.30
2019-06-26T06:46:18.206Z,23.30
2019-06-26T06:48:46.635Z,23.40
2019-06-26T06:51:15.075Z,23.40
2019-06-26T06:53:43.512Z,23.50
2019-06-26T06:56:12.031Z,23.60
2019-06-26T06:58:40.454Z,23.60
2019-06-26T07:01:08.890Z,23.70
2019-06-26T07:03:37.330Z,23.80
2019-06-26T07:06:05.765Z,23.90
2019-06-26T07:08:34.208Z,24.00
2019-06-26T07:11:02.626Z,24.10
2019-06-26T07:13:31.267Z,24.10
2019-06-26T07:15:59.704Z,24.20
2019-06-26T07:18:28.115Z,24.30
2019-06-26T07:20:56.557Z,24.30
2019-06-26T07:23:24.984Z,24.40
2019-06-26T07:25:53.422Z,24.50
2019-06-26T07:28:22.096Z,24.60
2019-06-26T07:30:50.668Z,24.60
2019-06-26T07:33:19.160Z,24.70
2019-06-26T07:35:47.597Z,24.80
2019-06-26T07:38:16.024Z,25.00
2019-06-26T07:40:44.645Z,25.00
2019-06-26T07:43:16.340Z,25.10
2019-06-26T07:45:43.243Z,25.20
2019-06-26T07:48:11.683Z,25.20
2019-06-26T07:50:40.194Z,25.20
2019-06-26T07:53:08.648Z,25.20
2019-06-26T07:55:40.353Z,25.20
2019-06-26T07:58:07.321Z,25.30
2019-06-26T08:00:35.826Z,25.40
2019-06-26T08:03:04.856Z,25.40
2019-06-26T08:05:33.602Z,25.50
2019-06-26T08:08:02.032Z,25.50
2019-06-26T08:10:31.042Z,25.50
2019-06-26T08:12:59.467Z,25.60
2019-06-26T08:15:27.912Z,25.70
2019-06-26T08:18:00.868Z,25.70
2019-06-26T08:20:26.512Z,25.80
2019-06-26T08:22:55.007Z,25.80
2019-06-26T08:25:23.510Z,25.90
2019-06-26T08:27:51.940Z,26.00
2019-06-26T08:30:20.533Z,26.00
2019-06-26T08:32:48.971Z,26.20
2019-06-26T08:35:17.475Z,26.30
2019-06-26T08:37:45.905Z,26.30
2019-06-26T08:40:14.972Z,26.30
2019-06-26T08:42:43.414Z,26.20
2019-06-26T08:45:12.491Z,26.20
2019-06-26T08:47:40.922Z,26.30
2019-06-26T08:50:10.990Z,26.40
2019-06-26T08:52:39.428Z,26.40
2019-06-26T08:55:08.292Z,26.50
2019-06-26T08:57:36.721Z,26.70
2019-06-26T09:00:07.278Z,26.60
2019-06-26T09:02:35.765Z,26.60
2019-06-26T09:05:05.551Z,26.70
2019-06-26T09:07:34.227Z,26.90
2019-06-26T09:10:03.027Z,27.20
2019-06-26T09:12:31.458Z,27.30
2019-06-26T09:14:59.899Z,27.40
2019-06-26T09:17:28.328Z,27.50
2019-06-26T09:19:56.764Z,27.50
2019-06-26T09:22:25.195Z,27.50
2019-06-26T09:24:53.659Z,27.50
2019-06-26T09:27:22.089Z,27.60
2019-06-26T09:29:50.570Z,27.60
2019-06-26T09:32:19.040Z,27.60
2019-06-26T09:34:47.527Z,27.60
2019-06-26T09:37:15.990Z,27.70
2019-06-26T09:39:44.462Z,27.80
2019-06-26T09:42:12.900Z,27.90
2019-06-26T09:44:41.353Z,28.20
2019-06-26T09:47:09.837Z,28.30
2019-06-26T09:49:38.266Z,28.30
2019-06-26T09:52:06.699Z,28.30
2019-06-26T09:54:35.140Z,28.30
2019-06-26T09:57:03.625Z,28.40
2019-06-26T09:59:32.082Z,28.40
2019-06-26T10:02:00.510Z,28.50
2019-06-26T10:04:29.730Z,28.50
2019-06-26T10:06:58.184Z,28.40
2019-06-26T10:09:26.594Z,28.50
2019-06-26T10:11:55.040Z,28.70
2019-06-26T10:14:23.478Z,28.90
2019-06-26T10:16:51.898Z,29.20
2019-06-26T10:19:20.327Z,29.50
2019-06-26T10:21:48.809Z,29.80
2019-06-26T10:24:17.296Z,30.10
2019-06-26T10:26:45.767Z,30.40
2019-06-26T10:29:14.210Z,30.50
2019-06-26T10:31:42.628Z,30.30
2019-06-26T10:34:11.066Z,30.30
2019-06-26T10:36:39.507Z,30.30
2019-06-26T10:39:08.472Z,30.30
2019-06-26T10:41:36.899Z,30.40
2019-06-26T10:44:05.336Z,30.50
2019-06-26T10:46:33.769Z,30.50
2019-06-26T10:49:02.288Z,30.40
2019-06-26T10:51:30.879Z,30.50
2019-06-26T10:53:59.319Z,30.20
2019-06-26T10:56:28.912Z,30.20
2019-06-26T10:58:57.486Z,30.20
2019-06-26T11:01:25.923Z,30.20
2019-06-26T11:03:54.347Z,30.20
2019-06-26T11:06:22.859Z,30.20
2019-06-26T11:08:51.291Z,30.10
2019-06-26T11:11:19.804Z,30.10
2019-06-26T11:13:48.246Z,30.10
2019-06-26T11:16:16.686Z,30.20
2019-06-26T11:18:45.123Z,30.10
2019-06-26T11:21:13.568Z,30.20
2019-06-26T11:23:41.995Z,30.20
2019-06-26T11:26:10.457Z,30.20
2019-06-26T11:28:38.871Z,30.20
2019-06-26T11:31:07.383Z,30.40
2019-06-26T11:33:35.824Z,30.30
2019-06-26T11:36:04.251Z,30.30
2019-06-26T11:38:32.693Z,30.40
2019-06-26T11:41:02.079Z,30.50
2019-06-26T11:43:30.730Z,30.50
2019-06-26T11:45:59.162Z,30.60
2019-06-26T11:48:27.594Z,30.60
2019-06-26T11:50:56.018Z,30.70
2019-06-26T11:53:24.520Z,30.80
2019-06-26T11:55:52.996Z,30.90
2019-06-26T11:58:21.436Z,31.00
2019-06-26T12:00:49.880Z,31.20
2019-06-26T12:03:18.306Z,31.00
2019-06-26T12:05:46.746Z,31.00
2019-06-26T12:08:18.324Z,31.10
2019-06-26T12:10:45.449Z,31.00
2019-06-26T12:13:13.948Z,31.10
2019-06-26T12:15:42.375Z,31.20
2019-06-26T12:18:10.819Z,31.30
2019-06-26T12:20:39.322Z,31.40
2019-06-26T12:23:07.766Z,31.50
2019-06-26T12:25:36.197Z,31.50
2019-06-26T12:28:05.385Z,31.70
2019-06-26T12:30:33.818Z,31.70
2019-06-26T12:33:03.791Z,31.70
2019-06-26T12:35:32.722Z,31.80
2019-06-26T12:38:01.176Z,31.80
2019-06-26T12:40:31.333Z,31.80
2019-06-26T12:42:59.769Z,31.80
2019-06-26T12:45:28.192Z,31.80
2019-06-26T12:47:56.648Z,31.80
2019-06-26T12:50:35.296Z,31.90
2019-06-26T12:52:55.654Z,32.00
2019-06-26T12:55:24.089Z,32.40
2019-06-26T12:57:52.533Z,32.60
2019-06-26T13:00:21.463Z,32.40
2019-06-26T13:02:49.911Z,32.20
2019-06-26T13:05:18.403Z,32.00
2019-06-26T13:07:46.915Z,32.40
2019-06-26T13:10:16.088Z,32.60
2019-06-26T13:12:45.859Z,33.10
2019-06-26T13:15:14.811Z,33.50
2019-06-26T13:17:43.270Z,33.50
2019-06-26T13:20:13.860Z,33.80
2019-06-26T13:22:42.343Z,33.90
2019-06-26T13:25:11.231Z,34.30
2019-06-26T13:27:39.647Z,35.10
2019-06-26T13:30:08.630Z,35.90
2019-06-26T13:32:37.134Z,36.10
2019-06-26T13:35:07.118Z,36.40
2019-06-26T13:37:35.618Z,37.50
2019-06-26T13:40:06.440Z,38.10
2019-06-26T13:42:34.934Z,39.40
2019-06-26T13:45:05.302Z,40.40
2019-06-26T13:47:33.745Z,40.70
2019-06-26T13:50:02.916Z,41.40
2019-06-26T13:52:31.603Z,42.10
2019-06-26T13:55:00.025Z,42.90
2019-06-26T13:57:29.811Z,43.20
2019-06-26T13:59:58.231Z,43.40
2019-06-26T14:02:26.723Z,43.10
2019-06-26T14:04:55.151Z,43.10
2019-06-26T14:07:23.579Z,42.70
2019-06-26T14:09:52.026Z,42.20
2019-06-26T14:12:20.459Z,42.10
2019-06-26T14:14:57.157Z,42.40
2019-06-26T14:17:19.138Z,42.60
2019-06-26T14:19:47.567Z,43.00
2019-06-26T14:22:15.997Z,43.10
2019-06-26T14:24:44.443Z,43.40
2019-06-26T14:27:12.880Z,42.80
2019-06-26T14:29:41.344Z,42.80
2019-06-26T14:32:09.778Z,42.80
2019-06-26T14:34:38.207Z,42.70
2019-06-26T14:37:06.664Z,41.80
2019-06-26T14:39:35.087Z,42.00
2019-06-26T14:42:04.094Z,41.70
2019-06-26T14:44:32.529Z,41.60
2019-06-26T14:47:01.012Z,41.10
2019-06-26T14:49:29.470Z,40.70
2019-06-26T14:51:57.930Z,40.30
2019-06-26T14:54:26.367Z,40.70
2019-06-26T14:56:54.785Z,41.20
2019-06-26T14:59:23.246Z,41.10
2019-06-26T15:01:51.704Z,41.10
2019-06-26T15:04:20.207Z,40.80
2019-06-26T15:06:48.694Z,40.60
2019-06-26T15:09:17.156Z,40.20
2019-06-26T15:11:45.598Z,40.50
2019-06-26T15:14:14.018Z,40.00
2019-06-26T15:16:42.488Z,40.10
2019-06-26T15:19:10.978Z,39.70
2019-06-26T15:21:39.419Z,39.20
2019-06-26T15:24:07.916Z,38.80
2019-06-26T15:26:36.366Z,38.80
2019-06-26T15:29:04.857Z,38.80
2019-06-26T15:31:33.302Z,38.60
2019-06-26T15:34:01.731Z,38.70
2019-06-26T15:36:30.623Z,38.90
2019-06-26T15:38:59.392Z,38.80
2019-06-26T15:41:27.914Z,38.50
2019-06-26T15:43:56.354Z,38.00
2019-06-26T15:46:24.784Z,37.90
2019-06-26T15:48:53.235Z,37.70
2019-06-26T15:51:21.676Z,37.60
2019-06-26T15:53:50.118Z,37.50
2019-06-26T15:56:18.550Z,37.50
2019-06-26T15:58:46.986Z,37.30
2019-06-26T16:01:15.415Z,37.10
2019-06-26T16:03:43.945Z,36.90
2019-06-26T16:06:12.408Z,36.60
2019-06-26T16:08:40.909Z,36.30
2019-06-26T16:11:09.355Z,36.10
2019-06-26T16:13:37.779Z,35.90
2019-06-26T16:16:06.238Z,35.70
2019-06-26T16:18:45.548Z,35.40
2019-06-26T16:21:14.594Z,35.30
2019-06-26T16:23:43.023Z,35.10
2019-06-26T16:26:11.448Z,34.90
2019-06-26T16:28:39.889Z,34.80
2019-06-26T16:31:08.317Z,34.70
2019-06-26T16:33:36.839Z,34.50
2019-06-26T16:36:05.278Z,34.30
2019-06-26T16:38:33.707Z,34.10
2019-06-26T16:41:02.128Z,33.90
2019-06-26T16:43:30.734Z,33.80
2019-06-26T16:45:59.172Z,33.60
2019-06-26T16:48:27.672Z,33.50
2019-06-26T16:50:56.125Z,33.30
2019-06-26T16:53:24.551Z,33.20
2019-06-26T16:55:52.994Z,33.10
2019-06-26T16:58:21.424Z,32.90
2019-06-26T17:00:52.519Z,32.80
2019-06-26T17:03:20.948Z,32.60
2019-06-26T17:05:49.387Z,32.50
2019-06-26T17:08:17.816Z,32.40
2019-06-26T17:10:46.302Z,32.30
2019-06-26T17:13:14.722Z,32.30
2019-06-26T17:15:43.323Z,32.20
2019-06-26T17:18:11.775Z,32.20
2019-06-26T17:20:40.273Z,32.10
2019-06-26T17:23:08.716Z,32.10
2019-06-26T17:25:37.156Z,32.10
2019-06-26T17:28:05.722Z,32.00
2019-06-26T17:30:34.142Z,31.90
2019-06-26T17:33:02.634Z,31.90
2019-06-26T17:35:31.064Z,31.80
2019-06-26T17:37:59.490Z,31.70
2019-06-26T17:40:27.936Z,31.60
2019-06-26T17:43:11.276Z,31.60
2019-06-26T17:45:26.532Z,31.60
2019-06-26T17:47:54.963Z,31.50
2019-06-26T17:50:23.397Z,31.50
2019-06-26T17:52:51.819Z,31.40
2019-06-26T17:55:20.302Z,31.30
2019-06-26T17:57:48.729Z,31.20
2019-06-26T18:00:18.952Z,31.20
2019-06-26T18:02:47.395Z,31.10
2019-06-26T18:05:16.391Z,30.90
2019-06-26T18:07:44.831Z,30.90
2019-06-26T18:10:13.261Z,30.70
2019-06-26T18:12:41.703Z,30.50
2019-06-26T18:15:10.970Z,30.20
2019-06-26T18:17:39.405Z,30.00
2019-06-26T18:20:08.276Z,29.80
2019-06-26T18:22:36.713Z,29.60
2019-06-26T18:25:06.287Z,29.50
2019-06-26T18:27:34.718Z,29.40
2019-06-26T18:30:04.114Z,29.40
2019-06-26T18:32:32.563Z,29.30
2019-06-26T18:35:00.991Z,29.20
2019-06-26T18:37:30.707Z,29.20
2019-06-26T18:39:59.140Z,29.20
2019-06-26T18:42:27.589Z,29.10
2019-06-26T18:44:56.013Z,29.10
2019-06-26T18:47:24.447Z,29.00
2019-06-26T18:49:52.871Z,29.10
2019-06-26T18:52:21.325Z,29.10
2019-06-26T18:54:49.788Z,29.20
2019-06-26T18:57:18.278Z,29.20
2019-06-26T18:59:46.700Z,29.10
2019-06-26T19:02:15.139Z,29.00
2019-06-26T19:04:43.575Z,28.80
2019-06-26T19:07:12.014Z,28.70
2019-06-26T19:09:40.465Z,28.50
2019-06-26T19:12:08.896Z,28.40
2019-06-26T19:14:37.334Z,28.30
2019-06-26T19:17:05.770Z,28.20
2019-06-26T19:19:34.207Z,28.10
2019-06-26T19:22:02.637Z,28.00
2019-06-26T19:24:31.087Z,27.90
2019-06-26T19:26:59.519Z,27.90
2019-06-26T19:29:27.958Z,27.80
2019-06-26T19:31:56.394Z,27.80
2019-06-26T19:34:24.836Z,27.80
2019-06-26T19:36:53.278Z,27.60
2019-06-26T19:39:21.724Z,27.60
2019-06-26T19:41:50.151Z,27.60
2019-06-26T19:44:18.591Z,27.50
2019-06-26T19:46:47.029Z,27.30
2019-06-26T19:49:15.458Z,27.20
2019-06-26T19:51:43.889Z,27.00
2019-06-26T19:54:26.088Z,26.80
2019-06-26T19:56:42.484Z,26.60
2019-06-26T19:59:10.926Z,26.40
2019-06-26T20:01:39.368Z,26.20
2019-06-26T20:04:07.880Z,25.90
2019-06-26T20:06:36.306Z,25.80
2019-06-26T20:09:06.396Z,25.70
2019-06-26T20:11:34.823Z,25.60
2019-06-26T20:14:03.431Z,25.60
2019-06-26T20:16:31.877Z,25.50
2019-06-26T20:19:00.316Z,25.40
2019-06-26T20:21:29.412Z,25.40
2019-06-26T20:23:57.858Z,25.40
2019-06-26T20:26:26.290Z,25.30
2019-06-26T20:28:54.731Z,25.20
2019-06-26T20:31:23.168Z,25.20
2019-06-26T20:33:51.609Z,25.20
2019-06-26T20:36:20.038Z,25.10
2019-06-26T20:38:48.473Z,25.10
2019-06-26T20:41:16.906Z,25.00
2019-06-26T20:43:45.338Z,25.10
2019-06-26T20:46:15.584Z,25.10
2019-06-26T20:48:43.939Z,25.10
2019-06-26T20:51:12.390Z,25.10
2019-06-26T20:53:40.812Z,25.00
2019-06-26T20:56:09.255Z,24.90
2019-06-26T20:58:37.686Z,24.90
2019-06-26T21:01:06.186Z,25.00
2019-06-26T21:03:34.618Z,25.00
2019-06-26T21:06:03.067Z,25.20
2019-06-26T21:08:31.494Z,25.20
2019-06-26T21:10:59.935Z,25.20
2019-06-26T21:13:28.420Z,25.20
2019-06-26T21:15:56.892Z,25.30
2019-06-26T21:18:25.315Z,25.20
2019-06-26T21:20:53.763Z,25.10
2019-06-26T21:23:23.517Z,24.90
2019-06-26T21:25:52.202Z,24.70
2019-06-26T21:28:20.627Z,24.60
2019-06-26T21:30:49.067Z,24.50
2019-06-26T21:33:17.491Z,24.50
2019-06-26T21:35:45.931Z,24.40
2019-06-26T21:38:14.363Z,24.30
2019-06-26T21:40:42.814Z,24.30
2019-06-26T21:43:11.251Z,24.40
2019-06-26T21:45:39.967Z,24.40
2019-06-26T21:48:08.430Z,24.50
2019-06-26T21:50:36.871Z,24.50
2019-06-26T21:53:05.301Z,24.50
2019-06-26T21:55:35.040Z,24.40
2019-06-26T21:58:03.646Z,24.30
2019-06-26T22:00:33.774Z,24.30
2019-06-26T22:03:02.231Z,24.40
2019-06-26T22:05:30.739Z,24.20
2019-06-26T22:07:59.184Z,24.00
2019-06-26T22:10:27.679Z,23.90
2019-06-26T22:12:56.113Z,23.80
2019-06-26T22:15:24.544Z,23.70
2019-06-26T22:17:52.991Z,23.70
2019-06-26T22:20:21.555Z,23.60
2019-06-26T22:22:50.007Z,23.50
2019-06-26T22:25:18.587Z,23.40
2019-06-26T22:27:47.098Z,23.10
2019-06-26T22:30:16.067Z,22.90
2019-06-26T22:32:44.515Z,22.90
2019-06-26T22:35:13.111Z,22.90
2019-06-26T22:37:41.556Z,22.90
2019-06-26T22:40:10.361Z,23.00
2019-06-26T22:42:38.822Z,23.20
2019-06-26T22:45:07.700Z,23.20
2019-06-26T22:47:36.216Z,23.30
2019-06-26T22:50:06.392Z,23.20
2019-06-26T22:52:34.835Z,23.10
2019-06-26T22:55:03.903Z,23.00
2019-06-26T22:57:32.355Z,23.10
2019-06-26T23:00:00.861Z,23.10
2019-06-26T23:02:29.348Z,23.00
2019-06-26T23:04:57.781Z,23.00
2019-06-26T23:07:26.299Z,22.90
2019-06-26T23:09:54.739Z,22.90
2019-06-26T23:12:23.179Z,22.80
2019-06-26T23:14:51.629Z,22.60
2019-06-26T23:17:20.075Z,22.50
2019-06-26T23:19:48.499Z,22.40
2019-06-26T23:22:16.928Z,22.30
2019-06-26T23:24:45.371Z,22.30
2019-06-26T23:27:13.812Z,22.30
2019-06-26T23:29:42.264Z,22.30
2019-06-26T23:32:10.695Z,22.30
2019-06-26T23:34:39.165Z,22.30
2019-06-26T23:37:07.596Z,22.40
2019-06-26T23:39:36.057Z,22.30
2019-06-26T23:42:04.851Z,22.30
2019-06-26T23:44:33.304Z,22.20
2019-06-26T23:47:01.742Z,22.10
2019-06-26T23:49:30.193Z,22.00
2019-06-26T23:51:58.628Z,22.00
2019-06-26T23:54:27.075Z,21.90
2019-06-26T23:56:55.515Z,21.90
2019-06-26T23:59:23.956Z,22.00
